Time;durP1;ratioP1;P1;durP2;ratioP2;P2;SDS_P1;SDS_P2;PMS_P1;PMS_P2;Temp;Humidity;BMP_temperature;BMP_pressure;BME280_temperature;BME280_humidity;BME280_pressure;Samples;Min_cycle;Max_cycle;Signal;HPM_P1;HPM_P2
2021/03/18 00:01:29;;;;;;;13.32;7.55;;;1.70;87.40;;;;;;5013613;28;20455;-72
2021/03/18 00:03:55;;;;;;;14.85;7.38;;;1.70;88.70;;;;;;5014710;28;20401;-72
2021/03/18 00:06:20;;;;;;;25.33;9.27;;;1.70;89.10;;;;;;5013578;28;20479;-73
2021/03/18 00:08:46;;;;;;;20.37;11.03;;;1.70;90.30;;;;;;5013706;28;20917;-72
2021/03/18 00:11:14;;;;;;;18.80;8.38;;;1.70;90.10;;;;;;5014288;28;20388;-72
2021/03/18 00:13:42;;;;;;;14.77;7.20;;;1.70;91.40;;;;;;5013655;28;20461;-72
2021/03/18 00:16:08;;;;;;;20.00;7.90;;;2.20;88.00;;;;;;5011576;28;20877;-72
2021/03/18 00:18:47;;;;;;;15.20;8.30;;;2.60;83.20;;;;;;5015751;28;20410;-72
2021/03/18 00:21:13;;;;;;;18.17;8.60;;;2.90;81.40;;;;;;5013496;28;20500;-72
2021/03/18 00:23:39;;;;;;;14.85;8.48;;;2.90;82.40;;;;;;5012095;28;20389;-72
2021/03/18 00:26:05;;;;;;;20.53;9.20;;;3.00;81.70;;;;;;5012454;28;20396;-71
2021/03/18 00:28:32;;;;;;;19.63;9.30;;;3.00;80.90;;;;;;5010756;28;20417;-73
2021/03/18 00:30:58;;;;;;;21.88;10.60;;;3.00;81.70;;;;;;5011429;28;20403;-73
2021/03/18 00:33:25;;;;;;;22.45;11.32;;;3.00;81.60;;;;;;5026595;28;20491;-72
2021/03/18 00:35:52;;;;;;;26.08;12.25;;;2.90;83.50;;;;;;5012310;28;20401;-72
2021/03/18 00:38:17;;;;;;;21.48;12.30;;;2.90;83.00;;;;;;5011940;28;20446;-73
2021/03/18 00:40:49;;;;;;;22.90;11.73;;;3.00;83.40;;;;;;5011593;28;20513;-72
2021/03/18 00:43:17;;;;;;;30.02;13.50;;;2.90;83.60;;;;;;5012449;28;20728;-73
2021/03/18 00:45:45;;;;;;;28.40;13.10;;;2.80;85.50;;;;;;5012984;28;20400;-72
2021/03/18 00:48:12;;;;;;;27.08;12.25;;;2.80;86.50;;;;;;5012891;28;20401;-73
2021/03/18 00:50:43;;;;;;;24.10;13.03;;;2.80;86.20;;;;;;5011054;28;20867;-72
2021/03/18 00:53:12;;;;;;;21.67;12.75;;;2.70;88.50;;;;;;5012910;28;20385;-72
2021/03/18 00:55:38;;;;;;;26.45;12.30;;;2.70;89.10;;;;;;5012671;28;20814;-71
2021/03/18 00:58:04;;;;;;;28.03;12.97;;;2.80;88.50;;;;;;5012481;28;20427;-71
2021/03/18 01:00:36;;;;;;;24.67;13.30;;;2.80;89.70;;;;;;5014493;28;20401;-71
2021/03/18 01:03:01;;;;;;;32.95;16.67;;;2.60;88.80;;;;;;5031634;28;20388;-72
2021/03/18 01:05:40;;;;;;;23.80;13.00;;;2.30;90.70;;;;;;5029366;28;20445;-72
2021/03/18 01:08:07;;;;;;;25.13;13.88;;;2.20;95.10;;;;;;5036542;28;20410;-71
2021/03/18 01:10:58;;;;;;;23.98;12.30;;;2.10;95.40;;;;;;5033750;28;20379;-71
2021/03/18 01:13:24;;;;;;;23.48;12.07;;;2.10;98.10;;;;;;5023729;28;20439;-72
2021/03/18 01:15:57;;;;;;;28.13;12.10;;;2.30;96.90;;;;;;5014330;28;20478;-72
2021/03/18 01:18:26;;;;;;;23.35;11.90;;;2.30;95.40;;;;;;5014169;28;20380;-71
2021/03/18 01:20:52;;;;;;;21.85;10.40;;;2.40;93.90;;;;;;5017928;28;20494;-74
2021/03/18 01:23:18;;;;;;;19.67;11.47;;;2.40;91.20;;;;;;5033752;28;20462;-72
2021/03/18 01:25:43;;;;;;;19.23;10.30;;;2.20;93.50;;;;;;5033613;28;20379;-72
2021/03/18 01:28:10;;;;;;;25.35;12.98;;;2.10;93.20;;;;;;5033770;28;20399;-71
2021/03/18 01:30:39;;;;;;;26.30;13.63;;;1.80;95.10;;;;;;5033391;28;20378;-72
2021/03/18 01:33:07;;;;;;;30.48;14.50;;;1.70;98.00;;;;;;5033458;28;20439;-71
2021/03/18 01:35:33;;;;;;;24.98;13.20;;;1.60;99.60;;;;;;5030083;28;20393;-73
2021/03/18 01:37:59;;;;;;;28.63;13.98;;;1.60;99.90;;;;;;5013768;28;20385;-72
2021/03/18 01:40:29;;;;;;;23.90;13.10;;;1.50;99.90;;;;;;5013408;28;20747;-72
2021/03/18 01:42:55;;;;;;;23.58;11.75;;;1.80;99.90;;;;;;5013714;28;20838;-71
2021/03/18 01:45:22;;;;;;;20.93;11.33;;;2.00;99.90;;;;;;5013560;28;20793;-72
2021/03/18 01:47:50;;;;;;;20.05;11.32;;;2.50;93.50;;;;;;5013235;28;20416;-71
2021/03/18 01:50:17;;;;;;;16.35;10.73;;;2.60;90.00;;;;;;5015846;28;20399;-72
2021/03/18 01:52:43;;;;;;;24.65;12.38;;;2.40;90.60;;;;;;5033108;28;20391;-71
2021/03/18 01:55:18;;;;;;;23.63;11.75;;;2.40;93.30;;;;;;5033214;28;20419;-72
2021/03/18 01:57:44;;;;;;;19.55;11.27;;;2.10;92.30;;;;;;5033005;28;20391;-72
2021/03/18 02:00:11;;;;;;;28.60;14.00;;;1.90;96.00;;;;;;5032784;28;20509;-72
2021/03/18 02:02:37;;;;;;;23.73;12.07;;;1.80;98.00;;;;;;5032945;28;20410;-72
2021/03/18 02:05:03;;;;;;;24.00;11.17;;;1.70;99.60;;;;;;5026608;28;20396;-71
2021/03/18 02:07:29;;;;;;;22.15;11.65;;;1.80;99.90;;;;;;5013283;28;20401;-72
2021/03/18 02:09:54;;;;;;;23.48;11.88;;;1.70;99.90;;;;;;5013191;28;20388;-72
2021/03/18 02:12:20;;;;;;;21.53;10.63;;;1.70;99.80;;;;;;5012390;28;20477;-72
2021/03/18 02:14:46;;;;;;;23.90;10.60;;;2.00;99.90;;;;;;5012807;28;20415;-72
2021/03/18 02:17:18;;;;;;;18.02;9.63;;;2.40;94.70;;;;;;5013155;28;20442;-72
2021/03/18 02:20:28;;;;;;;19.02;9.50;;;2.50;90.30;;;;;;5014004;28;20401;-71
2021/03/18 02:23:31;;;;;;;20.35;8.88;;;2.40;87.30;;;;;;5012768;28;20385;-72
2021/03/18 02:26:26;;;;;;;22.50;11.00;;;2.40;87.60;;;;;;5012881;28;20471;-72
2021/03/18 02:29:06;;;;;;;21.33;10.75;;;2.10;89.50;;;;;;5012361;28;20913;-72
2021/03/18 02:31:54;;;;;;;20.70;9.90;;;2.20;93.50;;;;;;5012627;28;20381;-72
2021/03/18 02:34:58;;;;;;;18.95;9.90;;;2.40;92.00;;;;;;5012308;28;20973;-73
2021/03/18 02:37:28;;;;;;;16.77;9.43;;;2.60;88.20;;;;;;4994521;28;20393;-72
2021/03/18 02:40:01;;;;;;;17.08;9.25;;;2.70;88.10;;;;;;5012293;28;20381;-72
2021/03/18 02:42:28;;;;;;;18.85;9.60;;;2.80;85.90;;;;;;5012515;28;20377;-72
2021/03/18 02:44:58;;;;;;;18.58;9.40;;;2.80;85.10;;;;;;5015061;28;20886;-71
2021/03/18 02:47:27;;;;;;;18.90;9.18;;;2.70;85.10;;;;;;5019304;28;20400;-72
2021/03/18 02:49:54;;;;;;;19.87;9.60;;;2.80;83.30;;;;;;5011990;28;20735;-71
2021/03/18 02:52:23;;;;;;;18.60;10.45;;;2.80;82.50;;;;;;5012264;28;20464;-72
2021/03/18 02:54:53;;;;;;;19.27;9.73;;;2.70;82.50;;;;;;5012057;28;20810;-72
2021/03/18 02:57:20;;;;;;;17.15;9.90;;;2.70;86.60;;;;;;5012473;28;20392;-72
2021/03/18 02:59:48;;;;;;;22.73;11.27;;;2.70;87.60;;;;;;5012168;28;20814;-72
2021/03/18 03:02:18;;;;;;;21.17;9.98;;;2.50;85.20;;;;;;5012141;28;20858;-72
2021/03/18 03:04:44;;;;;;;19.45;10.20;;;2.40;88.70;;;;;;5011898;28;21209;-72
2021/03/18 03:07:12;;;;;;;20.00;9.98;;;2.50;92.40;;;;;;5011720;28;20388;-72
2021/03/18 03:09:40;;;;;;;27.60;13.15;;;2.50;91.30;;;;;;5031440;28;20387;-71
2021/03/18 03:12:07;;;;;;;21.20;11.20;;;2.40;89.00;;;;;;5031852;28;20398;-72
2021/03/18 03:14:34;;;;;;;16.40;10.27;;;2.20;93.70;;;;;;5020772;28;20763;-73
2021/03/18 03:17:02;;;;;;;20.38;10.13;;;2.30;95.60;;;;;;5009352;28;20748;-71
2021/03/18 03:19:29;;;;;;;19.75;9.32;;;2.20;96.20;;;;;;5014425;28;20784;-72
2021/03/18 03:21:56;;;;;;;16.40;9.25;;;2.60;89.80;;;;;;5031515;28;20391;-70
2021/03/18 03:24:23;;;;;;;19.17;8.52;;;2.70;87.00;;;;;;5030533;28;20446;-72
2021/03/18 03:26:50;;;;;;;18.37;9.97;;;2.70;86.90;;;;;;5031384;28;20425;-71
2021/03/18 03:29:16;;;;;;;19.65;9.93;;;2.70;85.30;;;;;;5031060;28;20466;-72
2021/03/18 03:31:43;;;;;;;18.90;10.07;;;2.60;86.30;;;;;;5027604;28;20403;-71
2021/03/18 03:34:08;;;;;;;18.20;9.40;;;2.70;85.00;;;;;;5031141;28;20406;-72
2021/03/18 03:36:35;;;;;;;14.57;9.10;;;2.70;83.70;;;;;;5031149;28;20383;-71
2021/03/18 03:39:06;;;;;;;24.02;11.07;;;2.60;84.20;;;;;;5031023;28;20800;-72
2021/03/18 03:41:32;;;;;;;15.83;9.90;;;2.20;88.60;;;;;;5031167;28;20387;-72
2021/03/18 03:43:57;;;;;;;19.08;10.43;;;2.40;89.80;;;;;;5031148;28;20904;-72
2021/03/18 03:46:23;;;;;;;20.38;10.23;;;2.50;89.60;;;;;;5019323;28;20857;-72
2021/03/18 03:48:49;;;;;;;26.00;10.47;;;2.50;89.60;;;;;;5010811;28;20843;-71
2021/03/18 03:51:15;;;;;;;21.88;10.23;;;2.50;90.00;;;;;;5011208;28;20389;-71
2021/03/18 03:53:54;;;;;;;17.13;9.97;;;2.50;88.00;;;;;;5011019;28;20755;-72
2021/03/18 03:56:34;;;;;;;21.10;10.85;;;2.40;87.50;;;;;;5011472;28;20381;-71
2021/03/18 03:59:05;;;;;;;20.75;10.80;;;2.00;92.50;;;;;;5010863;28;20389;-72
2021/03/18 04:01:45;;;;;;;18.08;10.80;;;2.00;97.00;;;;;;5027120;28;20978;-71
2021/03/18 04:04:17;;;;;;;16.42;9.73;;;2.30;95.70;;;;;;5024995;28;20499;-72
2021/03/18 04:06:44;;;;;;;23.13;10.88;;;2.40;91.30;;;;;;5010948;28;20397;-71
2021/03/18 04:09:16;;;;;;;19.10;10.17;;;2.50;88.10;;;;;;5010785;28;20424;-72
2021/03/18 04:11:42;;;;;;;21.65;9.93;;;2.50;86.80;;;;;;5011042;28;20814;-72
2021/03/18 04:14:11;;;;;;;19.52;10.00;;;2.50;87.20;;;;;;5011100;28;20887;-71
2021/03/18 04:16:39;;;;;;;19.87;10.30;;;2.60;84.00;;;;;;5010957;28;20488;-73
2021/03/18 04:19:05;;;;;;;20.15;10.75;;;2.50;83.30;;;;;;5010700;28;20758;-72
2021/03/18 04:21:34;;;;;;;15.90;9.70;;;2.30;84.20;;;;;;5010821;28;20401;-71
2021/03/18 04:24:02;;;;;;;18.65;10.85;;;2.40;86.50;;;;;;5010669;28;20393;-71
2021/03/18 04:26:34;;;;;;;19.35;10.50;;;2.40;85.50;;;;;;5010811;28;20883;-72
2021/03/18 04:29:04;;;;;;;21.83;11.68;;;2.30;85.60;;;;;;5015147;28;20488;-72
2021/03/18 04:31:33;;;;;;;19.35;10.85;;;2.10;89.50;;;;;;5029461;28;20433;-71
2021/03/18 04:34:00;;;;;;;20.70;11.85;;;2.10;92.50;;;;;;5010818;28;20439;-71
2021/03/18 04:36:30;;;;;;;23.45;11.93;;;2.00;94.00;;;;;;5014461;28;20385;-71
2021/03/18 04:38:57;;;;;;;19.90;11.10;;;2.20;92.40;;;;;;5014316;28;20389;-72
2021/03/18 04:41:25;;;;;;;22.17;11.38;;;2.40;88.30;;;;;;5014784;28;20393;-72
2021/03/18 04:43:51;;;;;;;28.60;11.50;;;2.30;87.70;;;;;;5013270;28;20827;-72
2021/03/18 04:46:18;;;;;;;22.45;11.23;;;2.40;88.60;;;;;;5014577;28;20454;-72
2021/03/18 04:48:44;;;;;;;18.90;11.23;;;2.30;90.50;;;;;;5014252;28;20416;-71
2021/03/18 04:51:10;;;;;;;20.27;11.50;;;2.50;87.20;;;;;;5014596;28;20869;-72
2021/03/18 04:53:37;;;;;;;22.13;10.20;;;2.50;88.00;;;;;;5014354;28;20858;-71
2021/03/18 04:56:06;;;;;;;18.98;11.05;;;2.60;85.90;;;;;;5014447;28;20421;-73
2021/03/18 04:58:34;;;;;;;21.45;11.00;;;2.70;84.00;;;;;;5014353;28;20850;-72
2021/03/18 05:01:01;;;;;;;20.02;10.85;;;2.90;81.50;;;;;;5014248;28;20747;-71
2021/03/18 05:03:27;;;;;;;21.07;10.63;;;2.90;81.00;;;;;;5014406;28;20451;-73
2021/03/18 05:05:57;;;;;;;26.05;11.50;;;2.90;79.90;;;;;;5014352;28;20745;-71
2021/03/18 05:08:23;;;;;;;22.80;11.00;;;2.80;80.70;;;;;;5014110;28;20483;-73
2021/03/18 05:10:49;;;;;;;28.95;12.05;;;2.80;83.40;;;;;;5013958;28;20389;-72
2021/03/18 05:13:16;;;;;;;17.10;10.98;;;2.80;84.10;;;;;;5014405;28;20401;-71
2021/03/18 05:15:42;;;;;;;21.88;10.80;;;2.90;81.40;;;;;;5013995;28;20926;-71
2021/03/18 05:18:11;;;;;;;26.83;12.20;;;2.90;82.30;;;;;;5014104;28;20784;-72
2021/03/18 05:20:38;;;;;;;23.35;11.35;;;2.80;83.10;;;;;;5013659;28;20385;-72
2021/03/18 05:23:06;;;;;;;25.17;11.45;;;2.80;83.80;;;;;;5015274;28;20392;-72
2021/03/18 05:25:32;;;;;;;22.50;11.18;;;2.90;84.60;;;;;;5015850;28;20384;-71
2021/03/18 05:27:58;;;;;;;22.13;11.50;;;2.90;81.40;;;;;;5030175;28;20407;-72
2021/03/18 05:30:25;;;;;;;28.40;13.60;;;2.70;85.20;;;;;;5035639;28;20383;-72
2021/03/18 05:32:51;;;;;;;25.47;12.73;;;2.50;87.70;;;;;;5035771;28;20531;-72
2021/03/18 05:35:17;;;;;;;22.88;10.65;;;2.60;90.60;;;;;;5023634;28;20424;-71
2021/03/18 05:37:44;;;;;;;22.33;11.50;;;2.80;86.80;;;;;;5015305;28;20388;-71
2021/03/18 05:40:12;;;;;;;20.83;12.20;;;3.00;84.10;;;;;;5016110;28;20957;-72
2021/03/18 05:42:38;;;;;;;20.02;11.55;;;2.80;84.70;;;;;;5032220;28;20407;-72
2021/03/18 05:45:06;;;;;;;19.52;10.68;;;2.70;85.80;;;;;;5035863;28;20391;-72
2021/03/18 05:47:32;;;;;;;27.53;11.23;;;2.90;86.50;;;;;;5027666;28;20396;-71
2021/03/18 05:49:59;;;;;;;23.48;12.15;;;3.10;80.20;;;;;;5015890;28;20738;-73
2021/03/18 05:52:26;;;;;;;21.07;11.57;;;2.90;83.30;;;;;;5015776;28;20385;-72
2021/03/18 05:54:53;;;;;;;24.58;11.75;;;3.10;79.40;;;;;;5015766;28;20396;-71
2021/03/18 05:57:19;;;;;;;28.98;12.27;;;3.10;79.70;;;;;;5015383;28;20407;-71
2021/03/18 05:59:46;;;;;;;23.27;12.57;;;2.90;83.20;;;;;;5014546;28;20755;-71
2021/03/18 06:02:13;;;;;;;21.05;11.63;;;2.90;84.00;;;;;;5015594;28;20471;-73
2021/03/18 06:04:39;;;;;;;25.03;13.30;;;3.00;84.30;;;;;;5015452;28;20893;-72
2021/03/18 06:07:05;;;;;;;24.13;12.10;;;2.90;82.40;;;;;;5015160;28;20385;-72
2021/03/18 06:09:32;;;;;;;22.17;12.70;;;2.70;85.20;;;;;;5014674;28;20499;-72
2021/03/18 06:11:57;;;;;;;25.70;12.40;;;2.70;87.60;;;;;;5016123;28;20746;-72
2021/03/18 06:14:23;;;;;;;27.50;12.48;;;2.50;89.10;;;;;;5015631;28;20388;-72
2021/03/18 06:16:49;;;;;;;26.60;13.45;;;2.50;89.70;;;;;;5016216;28;20468;-72
2021/03/18 06:19:15;;;;;;;24.60;12.73;;;2.70;91.00;;;;;;5015267;28;20472;-71
2021/03/18 06:21:51;;;;;;;27.70;14.13;;;3.00;87.60;;;;;;5015277;28;20410;-71
2021/03/18 06:24:24;;;;;;;27.10;13.05;;;3.10;80.50;;;;;;5014381;28;20444;-72
2021/03/18 06:26:50;;;;;;;23.75;12.32;;;3.40;79.10;;;;;;5013630;28;20576;-72
2021/03/18 06:29:40;;;;;;;22.77;12.40;;;3.50;76.70;;;;;;5013871;28;20447;-72
2021/03/18 06:32:19;;;;;;;30.83;13.25;;;3.90;73.20;;;;;;5014154;28;20451;-72
2021/03/18 06:34:52;;;;;;;26.27;12.73;;;3.80;70.90;;;;;;5013820;28;20392;-72
2021/03/18 06:37:42;;;;;;;20.55;11.70;;;3.50;75.10;;;;;;5014158;28;20391;-72
2021/03/18 06:40:10;;;;;;;25.10;12.43;;;3.70;74.70;;;;;;5027827;28;20391;-72
2021/03/18 06:42:37;;;;;;;27.13;13.30;;;3.60;75.70;;;;;;5033764;28;20508;-72
2021/03/18 06:45:27;;;;;;;30.92;13.98;;;3.30;79.00;;;;;;5034585;28;20446;-72
2021/03/18 06:47:57;;;;;;;35.23;14.27;;;3.50;79.30;;;;;;5024546;28;20400;-72
2021/03/18 06:50:28;;;;;;;35.58;14.45;;;3.30;80.80;;;;;;5013954;28;20388;-71
2021/03/18 06:52:54;;;;;;;27.55;12.93;;;3.20;82.60;;;;;;5014183;28;20453;-73
2021/03/18 06:55:31;;;;;;;27.85;12.30;;;3.70;81.10;;;;;;5014524;28;20882;-72
2021/03/18 06:58:18;;;;;;;26.85;11.48;;;4.40;66.20;;;;;;5014071;28;20393;-73
2021/03/18 07:00:46;;;;;;;25.05;12.38;;;4.60;63.30;;;;;;5013830;28;20427;-72
2021/03/18 07:03:33;;;;;;;23.67;11.88;;;4.70;61.80;;;;;;5029727;28;20402;-72
2021/03/18 07:06:00;;;;;;;27.70;12.27;;;4.80;60.90;;;;;;5033607;28;20390;-71
2021/03/18 07:08:37;;;;;;;22.65;12.00;;;4.70;61.20;;;;;;5024211;28;20473;-71
2021/03/18 07:11:20;;;;;;;23.15;12.45;;;4.80;61.50;;;;;;5012255;28;20377;-70
2021/03/18 07:13:47;;;;;;;22.75;12.90;;;4.80;61.20;;;;;;5028010;28;20882;-70
2021/03/18 07:16:13;;;;;;;26.70;13.20;;;4.70;62.50;;;;;;5012976;28;20918;-69
2021/03/18 07:18:40;;;;;;;34.78;14.18;;;4.60;65.90;;;;;;5013834;28;20480;-69
2021/03/18 07:21:08;;;;;;;31.85;14.02;;;4.70;68.30;;;;;;5012976;28;20837;-70
2021/03/18 07:23:46;;;;;;;31.73;14.40;;;4.40;71.70;;;;;;5010274;28;20396;-70
2021/03/18 07:26:23;;;;;;;38.55;15.18;;;4.50;71.20;;;;;;5012098;28;20389;-70
2021/03/18 07:28:53;;;;;;;37.17;14.50;;;4.50;71.80;;;;;;5012294;28;20448;-70
2021/03/18 07:31:22;;;;;;;29.42;15.23;;;4.20;72.80;;;;;;5012403;28;20504;-70
2021/03/18 07:33:48;;;;;;;25.42;13.73;;;4.50;70.90;;;;;;5011828;28;20929;-69
2021/03/18 07:36:16;;;;;;;27.52;14.35;;;4.80;65.30;;;;;;5011873;28;20969;-71
2021/03/18 07:38:42;;;;;;;29.50;12.88;;;4.70;65.10;;;;;;5013129;28;20403;-71
2021/03/18 07:41:14;;;;;;;25.45;12.85;;;5.10;63.70;;;;;;5023700;28;20434;-70
2021/03/18 07:43:42;;;;;;;31.17;12.73;;;5.70;57.50;;;;;;5033629;28;20391;-70
2021/03/18 07:46:11;;;;;;;30.70;13.30;;;6.00;54.30;;;;;;5022915;28;20396;-70
2021/03/18 07:48:37;;;;;;;33.05;14.25;;;6.00;55.30;;;;;;5021872;28;20757;-72
2021/03/18 07:51:03;;;;;;;28.00;14.07;;;5.60;57.10;;;;;;5033405;28;20379;-70
2021/03/18 07:53:30;;;;;;;36.58;14.70;;;5.50;59.30;;;;;;5033302;28;20390;-73
2021/03/18 07:55:56;;;;;;;30.05;15.27;;;5.30;61.30;;;;;;5034805;28;20382;-72
2021/03/18 07:58:42;;;;;;;34.17;14.75;;;5.50;60.70;;;;;;5030170;28;20817;-71
2021/03/18 08:01:31;;;;;;;29.73;15.40;;;5.40;59.40;;;;;;5030658;28;20418;-72
2021/03/18 08:03:58;;;;;;;28.08;14.77;;;5.30;61.10;;;;;;5030428;28;20391;-72
2021/03/18 08:06:41;;;;;;;28.60;13.53;;;5.50;60.20;;;;;;5030202;28;20395;-72
2021/03/18 08:09:12;;;;;;;28.63;14.25;;;5.70;56.60;;;;;;5029757;28;20776;-73
2021/03/18 08:11:39;;;;;;;27.10;15.00;;;5.40;60.20;;;;;;5025860;28;20403;-73
2021/03/18 08:14:20;;;;;;;30.83;15.70;;;5.50;59.40;;;;;;5010795;28;20399;-73
2021/03/18 08:16:46;;;;;;;29.27;13.68;;;5.30;61.00;;;;;;5010621;28;20380;-73
2021/03/18 08:19:14;;;;;;;32.80;14.45;;;5.40;59.20;;;;;;5010301;28;20779;-74
2021/03/18 08:21:50;;;;;;;34.05;13.80;;;5.40;61.30;;;;;;5027924;28;20407;-73
2021/03/18 08:24:32;;;;;;;27.73;13.10;;;5.50;60.10;;;;;;5030525;28;20387;-73
2021/03/18 08:27:02;;;;;;;29.05;14.10;;;5.80;55.50;;;;;;5018709;28;20412;-72
2021/03/18 08:29:43;;;;;;;29.15;13.48;;;6.00;54.80;;;;;;5016767;28;20411;-72
2021/03/18 08:32:24;;;;;;;29.60;12.93;;;5.90;57.00;;;;;;5030371;28;20403;-73
2021/03/18 08:35:01;;;;;;;25.83;12.40;;;6.30;52.60;;;;;;5030381;28;20387;-73
2021/03/18 08:37:42;;;;;;;38.33;14.10;;;6.20;54.50;;;;;;5030244;28;20409;-73
2021/03/18 08:40:28;;;;;;;31.23;13.52;;;6.30;53.80;;;;;;5030127;28;20387;-73
2021/03/18 08:43:01;;;;;;;29.25;13.73;;;6.50;50.40;;;;;;5028022;28;20433;-71
2021/03/18 08:45:27;;;;;;;31.20;13.60;;;6.60;51.60;;;;;;5029904;28;20405;-74
2021/03/18 08:47:57;;;;;;;28.35;13.77;;;7.20;47.00;;;;;;5020566;28;20405;-72
2021/03/18 08:50:23;;;;;;;33.88;15.07;;;7.40;43.80;;;;;;5010355;28;20896;-72
2021/03/18 08:52:49;;;;;;;33.60;15.00;;;7.20;46.00;;;;;;5010298;28;20396;-72
2021/03/18 08:55:38;;;;;;;43.40;16.08;;;7.40;43.00;;;;;;5010263;28;20743;-71
2021/03/18 08:58:08;;;;;;;45.60;17.40;;;7.00;47.90;;;;;;5011659;28;20526;-73
2021/03/18 09:00:34;;;;;;;36.42;16.80;;;6.60;49.80;;;;;;5019005;28;20747;-73
2021/03/18 09:03:01;;;;;;;49.27;17.77;;;6.90;49.90;;;;;;5033746;28;20450;-72
2021/03/18 09:05:27;;;;;;;35.03;15.63;;;6.80;50.30;;;;;;5034115;28;21095;-72
2021/03/18 09:08:01;;;;;;;34.47;15.40;;;7.60;43.50;;;;;;5030728;28;20421;-73
2021/03/18 09:10:28;;;;;;;36.05;15.57;;;7.90;40.30;;;;;;5033036;28;20381;-72
2021/03/18 09:12:58;;;;;;;35.92;15.18;;;7.60;42.70;;;;;;5008658;28;20391;-72
2021/03/18 09:15:36;;;;;;;25.33;12.60;;;7.70;42.00;;;;;;5009427;28;20429;-73
2021/03/18 09:18:21;;;;;;;36.20;14.27;;;8.30;37.60;;;;;;5020544;28;20892;-74
2021/03/18 09:20:53;;;;;;;36.13;16.83;;;7.60;41.20;;;;;;5013023;28;20412;-74
2021/03/18 09:23:22;;;;;;;36.55;18.48;;;7.30;44.30;;;;;;5013732;28;20385;-73
2021/03/18 09:25:51;;;;;;;36.40;19.15;;;7.30;43.00;;;;;;5030189;28;20478;-72
2021/03/18 09:28:17;;;;;;;41.35;20.77;;;7.30;44.20;;;;;;5019739;28;20415;-70
2021/03/18 09:30:48;;;;;;;35.65;18.60;;;7.20;45.30;;;;;;5044929;28;20426;-74
2021/03/18 09:33:20;;;;;;;36.40;21.00;;;7.20;43.90;;;;;;4995962;28;20764;-76
2021/03/18 09:35:47;;;;;;;38.63;19.05;;;7.20;47.40;;;;;;5025653;28;20485;-76
2021/03/18 09:38:18;;;;;;;31.33;17.20;;;7.50;44.00;;;;;;5036300;28;20391;-72
2021/03/18 09:40:45;;;;;;;26.83;14.00;;;8.10;39.40;;;;;;5033423;28;20450;-74
2021/03/18 09:43:12;;;;;;;27.75;14.60;;;8.10;35.70;;;;;;5020328;28;20412;-72
2021/03/18 09:45:38;;;;;;;25.70;14.50;;;8.10;37.30;;;;;;5028528;28;20483;-73
2021/03/18 09:48:04;;;;;;;30.00;13.60;;;8.10;36.60;;;;;;5024905;28;20747;-74
2021/03/18 09:50:31;;;;;;;23.23;13.27;;;7.90;37.00;;;;;;5023966;28;20407;-73
2021/03/18 09:53:11;;;;;;;22.45;12.65;;;8.00;37.70;;;;;;5032022;28;20788;-73
2021/03/18 09:55:38;;;;;;;26.30;11.40;;;8.10;37.20;;;;;;5012918;28;20388;-72
2021/03/18 09:58:09;;;;;;;15.02;9.10;;;8.00;36.50;;;;;;5029316;28;20523;-74
2021/03/18 10:00:35;;;;;;;17.13;7.90;;;8.10;36.00;;;;;;5012637;28;20417;-73
2021/03/18 10:03:01;;;;;;;17.23;8.50;;;8.40;33.80;;;;;;5015333;28;20450;-72
2021/03/18 10:05:27;;;;;;;12.60;8.33;;;8.30;33.70;;;;;;5032563;28;20391;-73
2021/03/18 10:07:56;;;;;;;11.40;7.75;;;8.50;32.00;;;;;;5008375;28;20471;-73
2021/03/18 10:10:23;;;;;;;16.17;9.57;;;8.50;32.30;;;;;;5012060;28;20886;-73
2021/03/18 10:12:53;;;;;;;13.93;8.40;;;8.90;30.30;;;;;;5031526;28;20457;-73
2021/03/18 10:15:20;;;;;;;13.82;8.05;;;9.20;30.00;;;;;;5032771;28;20428;-73
2021/03/18 10:17:48;;;;;;;18.23;8.73;;;8.90;30.80;;;;;;5021296;28;20905;-72
2021/03/18 10:20:26;;;;;;;13.82;7.80;;;8.60;32.60;;;;;;5013692;28;20412;-72
2021/03/18 10:23:10;;;;;;;13.40;7.25;;;8.50;34.50;;;;;;5012955;28;20456;-72
2021/03/18 10:25:38;;;;;;;14.93;7.23;;;9.10;31.40;;;;;;5017431;28;20770;-72
2021/03/18 10:28:13;;;;;;;14.80;7.95;;;9.10;30.60;;;;;;5006894;28;20419;-73
2021/03/18 10:30:44;;;;;;;14.73;6.60;;;9.20;30.30;;;;;;5012188;28;20388;-73
2021/03/18 10:33:20;;;;;;;9.07;5.47;;;9.50;26.40;;;;;;5011735;28;20393;-73
2021/03/18 10:35:58;;;;;;;10.10;5.80;;;9.50;26.20;;;;;;5010967;28;20454;-72
2021/03/18 10:38:26;;;;;;;14.10;6.63;;;9.40;26.20;;;;;;4998602;28;20484;-72
2021/03/18 10:40:52;;;;;;;15.80;6.90;;;8.50;30.70;;;;;;5009879;28;20398;-73
2021/03/18 10:43:23;;;;;;;15.68;6.63;;;8.80;31.00;;;;;;5031718;28;20462;-74
2021/03/18 10:45:50;;;;;;;12.88;6.47;;;9.20;29.10;;;;;;5023606;28;20443;-73
2021/03/18 10:48:23;;;;;;;13.52;5.20;;;9.10;27.70;;;;;;5012768;28;20496;-73
2021/03/18 10:50:50;;;;;;;9.52;5.32;;;9.10;27.40;;;;;;5011791;28;20384;-72
2021/03/18 10:53:16;;;;;;;11.25;6.20;;;9.00;28.00;;;;;;5028813;28;20391;-73
2021/03/18 10:55:49;;;;;;;12.97;6.33;;;8.90;28.90;;;;;;5018173;28;20476;-74
2021/03/18 10:58:18;;;;;;;11.20;6.30;;;8.60;32.10;;;;;;5027954;28;20506;-73
2021/03/18 11:00:44;;;;;;;9.10;5.53;;;8.80;28.70;;;;;;5031465;28;20429;-72
2021/03/18 11:03:15;;;;;;;8.05;4.55;;;9.30;27.30;;;;;;5015975;28;20808;-72
2021/03/18 11:05:49;;;;;;;7.68;5.20;;;9.30;26.50;;;;;;5024699;28;20436;-73
2021/03/18 11:08:16;;;;;;;10.50;5.80;;;8.80;28.60;;;;;;5031286;28;20446;-73
2021/03/18 11:10:48;;;;;;;9.95;5.45;;;8.60;29.80;;;;;;5029832;28;20398;-73
2021/03/18 11:13:23;;;;;;;8.00;4.90;;;8.80;28.70;;;;;;5031415;28;20475;-74
2021/03/18 11:15:53;;;;;;;7.68;4.50;;;9.10;26.20;;;;;;5020677;28;20442;-73
2021/03/18 11:18:26;;;;;;;10.10;5.07;;;9.10;26.10;;;;;;5029920;28;20494;-77
2021/03/18 11:20:52;;;;;;;7.35;4.90;;;9.60;25.70;;;;;;5028162;28;20430;-72
2021/03/18 11:23:30;;;;;;;7.97;4.75;;;9.80;23.00;;;;;;5029452;28;20404;-73
2021/03/18 11:25:57;;;;;;;8.30;5.30;;;9.80;23.50;;;;;;5025780;28;20944;-71
2021/03/18 11:28:24;;;;;;;6.40;3.60;;;10.00;24.50;;;;;;5038046;28;20413;-74
2021/03/18 11:30:50;;;;;;;6.88;4.35;;;9.90;21.60;;;;;;5031572;28;20415;-74
2021/03/18 11:33:20;;;;;;;6.75;4.60;;;9.60;24.20;;;;;;5024285;28;20469;-74
2021/03/18 11:35:52;;;;;;;10.45;5.20;;;9.30;25.70;;;;;;5032380;28;20863;-75
2021/03/18 11:38:18;;;;;;;10.60;5.40;;;8.90;27.90;;;;;;5035615;28;20470;-73
2021/03/18 11:40:46;;;;;;;9.90;4.73;;;8.70;29.10;;;;;;5035147;28;20415;-72
2021/03/18 11:43:13;;;;;;;9.20;4.00;;;8.80;28.20;;;;;;5033465;28;20967;-75
2021/03/18 11:45:39;;;;;;;5.20;3.50;;;8.70;28.20;;;;;;5032025;28;20403;-74
2021/03/18 11:48:06;;;;;;;9.93;4.00;;;8.80;26.90;;;;;;5015094;28;20501;-73
2021/03/18 11:50:32;;;;;;;6.57;4.50;;;8.90;27.60;;;;;;5012649;28;20961;-73
2021/03/18 11:52:57;;;;;;;10.47;4.27;;;8.40;29.30;;;;;;5012903;28;20473;-74
2021/03/18 11:55:24;;;;;;;5.03;3.30;;;8.40;29.70;;;;;;5012931;28;20801;-74
2021/03/18 11:57:56;;;;;;;6.88;3.17;;;8.80;27.10;;;;;;5012951;28;20401;-73
2021/03/18 12:00:22;;;;;;;13.30;4.90;;;8.50;24.30;;;;;;5012505;28;20432;-73
2021/03/18 12:02:48;;;;;;;7.10;3.40;;;8.20;27.00;;;;;;5028420;28;20411;-74
2021/03/18 12:05:14;;;;;;;4.72;3.20;;;8.40;26.30;;;;;;5030658;28;20393;-73
2021/03/18 12:07:40;;;;;;;7.50;4.33;;;8.60;25.80;;;;;;5029626;28;20413;-74
2021/03/18 12:10:05;;;;;;;10.33;4.33;;;8.70;26.90;;;;;;5030349;28;20379;-75
2021/03/18 12:12:31;;;;;;;3.65;2.90;;;8.80;27.60;;;;;;5030467;28;20386;-73
2021/03/18 12:14:56;;;;;;;3.78;2.50;;;8.70;25.40;;;;;;5030292;28;20415;-73
2021/03/18 12:17:24;;;;;;;7.45;3.92;;;8.60;25.10;;;;;;5017204;28;20452;-73
2021/03/18 12:19:50;;;;;;;14.38;5.40;;;8.40;27.80;;;;;;5010079;28;20496;-73
2021/03/18 12:22:15;;;;;;;16.27;5.57;;;8.30;30.80;;;;;;5021866;28;20481;-72
2021/03/18 12:24:41;;;;;;;8.57;5.30;;;7.80;32.70;;;;;;5029900;28;20511;-74
2021/03/18 12:27:07;;;;;;;17.10;6.20;;;7.50;35.00;;;;;;5018295;28;20462;-73
2021/03/18 12:29:32;;;;;;;13.70;6.35;;;7.40;36.80;;;;;;5009991;28;20400;-73
2021/03/18 12:31:58;;;;;;;13.43;5.65;;;7.60;38.30;;;;;;5011869;28;20400;-72
2021/03/18 12:34:24;;;;;;;12.15;6.10;;;7.90;36.90;;;;;;5010379;28;20381;-73
2021/03/18 12:36:50;;;;;;;10.10;5.60;;;8.20;34.20;;;;;;5010119;28;20400;-72
2021/03/18 12:39:15;;;;;;;18.10;6.60;;;8.70;32.60;;;;;;5010339;28;20866;-72
2021/03/18 12:41:41;;;;;;;10.60;4.80;;;9.30;29.90;;;;;;5012620;28;20461;-74
2021/03/18 12:44:06;;;;;;;10.77;5.33;;;9.20;28.70;;;;;;5029767;28;20421;-73
2021/03/18 12:46:32;;;;;;;10.70;4.97;;;9.20;29.30;;;;;;5023028;28;20631;-72
2021/03/18 12:48:58;;;;;;;21.67;6.82;;;9.20;28.90;;;;;;5011398;28;20551;-73
2021/03/18 12:51:24;;;;;;;11.45;6.35;;;8.90;30.30;;;;;;5010431;28;20934;-73
2021/03/18 12:53:51;;;;;;;8.20;5.10;;;8.80;31.60;;;;;;5009860;28;20460;-74